sensor_id;sensor_type;location;lat;lon;timestamp;temperature;humidity
22192;DHT22;11261;52.456;10.850;2023-12-14T00:00:42;4.50;99.90
22192;DHT22;11261;52.456;10.850;2023-12-14T00:03:11;4.50;99.90
22192;DHT22;11261;52.456;10.850;2023-12-14T00:05:41;4.40;99.90
22192;DHT22;11261;52.456;10.850;2023-12-14T00:08:09;4.40;99.90
22192;DHT22;11261;52.456;10.850;2023-12-14T00:10:38;4.40;99.90
22192;DHT22;11261;52.456;10.850;2023-12-14T00:13:06;4.40;99.90
22192;DHT22;11261;52.456;10.850;2023-12-14T00:15:35;4.40;99.90
22192;DHT22;11261;52.456;10.850;2023-12-14T00:18:03;4.50;99.90
22192;DHT22;11261;52.456;10.850;2023-12-14T00:20:33;4.40;99.90
22192;DHT22;11261;52.456;10.850;2023-12-14T00:23:03;4.30;99.90
22192;DHT22;11261;52.456;10.850;2023-12-14T00:25:31;4.30;99.90
22192;DHT22;11261;52.456;10.850;2023-12-14T00:28:00;4.40;99.90
22192;DHT22;11261;52.456;10.850;2023-12-14T00:30:29;4.40;99.90
22192;DHT22;11261;52.456;10.850;2023-12-14T00:32:57;4.40;99.90
22192;DHT22;11261;52.456;10.850;2023-12-14T00:35:26;4.40;99.90
22192;DHT22;11261;52.456;10.850;2023-12-14T00:37:55;4.30;99.90
22192;DHT22;11261;52.456;10.850;2023-12-14T00:40:25;4.40;99.90
22192;DHT22;11261;52.456;10.850;2023-12-14T00:42:53;4.30;99.90
22192;DHT22;11261;52.456;10.850;2023-12-14T00:45:22;4.30;99.90
22192;DHT22;11261;52.456;10.850;2023-12-14T00:47:50;4.30;99.90
22192;DHT22;11261;52.456;10.850;2023-12-14T00:50:19;4.20;99.90
22192;DHT22;11261;52.456;10.850;2023-12-14T00:52:48;4.30;99.90
22192;DHT22;11261;52.456;10.850;2023-12-14T00:55:16;4.30;99.90
22192;DHT22;11261;52.456;10.850;2023-12-14T00:57:46;4.30;99.90
22192;DHT22;11261;52.456;10.850;2023-12-14T01:00:15;4.30;99.90
22192;DHT22;11261;52.456;10.850;2023-12-14T01:02:44;4.40;99.90
22192;DHT22;11261;52.456;10.850;2023-12-14T01:05:12;4.40;99.90
22192;DHT22;11261;52.456;10.850;2023-12-14T01:07:42;4.40;99.90
22192;DHT22;11261;52.456;10.850;2023-12-14T01:10:10;4.30;99.90
22192;DHT22;11261;52.456;10.850;2023-12-14T01:12:39;4.30;99.90
22192;DHT22;11261;52.456;10.850;2023-12-14T01:15:09;4.30;99.90
22192;DHT22;11261;52.456;10.850;2023-12-14T01:17:38;4.30;99.90
22192;DHT22;11261;52.456;10.850;2023-12-14T01:20:08;4.30;99.90
22192;DHT22;11261;52.456;10.850;2023-12-14T01:22:37;4.30;99.90
22192;DHT22;11261;52.456;10.850;2023-12-14T01:25:06;4.30;99.90
22192;DHT22;11261;52.456;10.850;2023-12-14T01:27:35;4.30;99.90
22192;DHT22;11261;52.456;10.850;2023-12-14T01:30:04;4.20;99.90
22192;DHT22;11261;52.456;10.850;2023-12-14T01:32:34;4.30;99.90
22192;DHT22;11261;52.456;10.850;2023-12-14T01:35:03;4.10;99.90
22192;DHT22;11261;52.456;10.850;2023-12-14T01:37:32;4.30;99.90
22192;DHT22;11261;52.456;10.850;2023-12-14T01:40:01;4.20;99.90
22192;DHT22;11261;52.456;10.850;2023-12-14T01:42:29;4.30;99.90
22192;DHT22;11261;52.456;10.850;2023-12-14T01:44:58;4.20;99.90
22192;DHT22;11261;52.456;10.850;2023-12-14T01:47:26;4.20;99.90
22192;DHT22;11261;52.456;10.850;2023-12-14T01:49:56;4.30;99.90
22192;DHT22;11261;52.456;10.850;2023-12-14T01:52:24;4.20;99.90
22192;DHT22;11261;52.456;10.850;2023-12-14T01:54:53;4.20;99.90
22192;DHT22;11261;52.456;10.850;2023-12-14T01:57:22;4.20;99.90
22192;DHT22;11261;52.456;10.850;2023-12-14T01:59:51;4.20;99.90
22192;DHT22;11261;52.456;10.850;2023-12-14T02:02:19;4.20;99.90
22192;DHT22;11261;52.456;10.850;2023-12-14T02:04:47;4.20;99.90
22192;DHT22;11261;52.456;10.850;2023-12-14T02:07:17;4.00;99.90
22192;DHT22;11261;52.456;10.850;2023-12-14T02:09:46;4.10;99.90
22192;DHT22;11261;52.456;10.850;2023-12-14T02:12:14;4.10;99.90
22192;DHT22;11261;52.456;10.850;2023-12-14T02:14:43;4.10;99.90
22192;DHT22;11261;52.456;10.850;2023-12-14T02:17:12;4.10;99.90
22192;DHT22;11261;52.456;10.850;2023-12-14T02:19:40;4.10;99.90
22192;DHT22;11261;52.456;10.850;2023-12-14T02:22:09;4.00;99.90
22192;DHT22;11261;52.456;10.850;2023-12-14T02:24:39;4.10;99.90
22192;DHT22;11261;52.456;10.850;2023-12-14T02:27:07;4.10;99.90
22192;DHT22;11261;52.456;10.850;2023-12-14T02:29:36;4.00;99.90
22192;DHT22;11261;52.456;10.850;2023-12-14T02:32:05;4.00;99.90
22192;DHT22;11261;52.456;10.850;2023-12-14T02:34:33;4.10;99.90
22192;DHT22;11261;52.456;10.850;2023-12-14T02:37:02;4.00;99.90
22192;DHT22;11261;52.456;10.850;2023-12-14T02:39:30;4.00;99.90
22192;DHT22;11261;52.456;10.850;2023-12-14T02:42:00;3.90;99.90
22192;DHT22;11261;52.456;10.850;2023-12-14T02:44:29;4.00;99.90
22192;DHT22;11261;52.456;10.850;2023-12-14T02:46:57;4.00;99.90
22192;DHT22;11261;52.456;10.850;2023-12-14T02:49:25;3.90;99.90
22192;DHT22;11261;52.456;10.850;2023-12-14T02:51:54;3.90;99.90
22192;DHT22;11261;52.456;10.850;2023-12-14T02:54:22;4.00;99.90
22192;DHT22;11261;52.456;10.850;2023-12-14T02:56:51;3.90;99.90
22192;DHT22;11261;52.456;10.850;2023-12-14T02:59:20;4.00;99.90
22192;DHT22;11261;52.456;10.850;2023-12-14T03:01:49;4.00;99.90
22192;DHT22;11261;52.456;10.850;2023-12-14T03:04:18;3.90;99.90
22192;DHT22;11261;52.456;10.850;2023-12-14T03:06:46;4.00;99.90
22192;DHT22;11261;52.456;10.850;2023-12-14T03:09:15;3.90;99.90
22192;DHT22;11261;52.456;10.850;2023-12-14T03:11:44;4.10;99.90
22192;DHT22;11261;52.456;10.850;2023-12-14T03:14:12;4.00;99.90
22192;DHT22;11261;52.456;10.850;2023-12-14T03:16:42;4.00;99.90
22192;DHT22;11261;52.456;10.850;2023-12-14T03:19:11;4.00;99.90
22192;DHT22;11261;52.456;10.850;2023-12-14T03:21:40;4.00;99.90
22192;DHT22;11261;52.456;10.850;2023-12-14T03:24:09;3.90;99.90
22192;DHT22;11261;52.456;10.850;2023-12-14T03:26:37;3.90;99.90
22192;DHT22;11261;52.456;10.850;2023-12-14T03:29:06;4.00;99.90
22192;DHT22;11261;52.456;10.850;2023-12-14T03:31:35;3.90;99.90
22192;DHT22;11261;52.456;10.850;2023-12-14T03:34:05;4.00;99.90
22192;DHT22;11261;52.456;10.850;2023-12-14T03:36:33;4.00;99.90
22192;DHT22;11261;52.456;10.850;2023-12-14T03:39:02;4.00;99.90
22192;DHT22;11261;52.456;10.850;2023-12-14T03:41:31;3.90;99.90
22192;DHT22;11261;52.456;10.850;2023-12-14T03:43:59;4.10;99.90
22192;DHT22;11261;52.456;10.850;2023-12-14T03:46:28;4.00;99.90
22192;DHT22;11261;52.456;10.850;2023-12-14T03:48:57;3.80;99.90
22192;DHT22;11261;52.456;10.850;2023-12-14T03:51:26;3.90;99.90
22192;DHT22;11261;52.456;10.850;2023-12-14T03:53:55;3.90;99.90
22192;DHT22;11261;52.456;10.850;2023-12-14T03:56:23;3.90;99.90
22192;DHT22;11261;52.456;10.850;2023-12-14T03:58:52;4.00;99.90
22192;DHT22;11261;52.456;10.850;2023-12-14T04:01:21;4.00;99.90
22192;DHT22;11261;52.456;10.850;2023-12-14T04:03:49;3.90;99.90
22192;DHT22;11261;52.456;10.850;2023-12-14T04:06:18;4.00;99.90
22192;DHT22;11261;52.456;10.850;2023-12-14T04:08:48;4.00;99.90
22192;DHT22;11261;52.456;10.850;2023-12-14T04:11:16;3.90;99.90
22192;DHT22;11261;52.456;10.850;2023-12-14T04:13:45;4.00;99.90
22192;DHT22;11261;52.456;10.850;2023-12-14T04:16:19;3.90;99.90
22192;DHT22;11261;52.456;10.850;2023-12-14T04:18:52;4.00;99.90
22192;DHT22;11261;52.456;10.850;2023-12-14T04:21:20;3.80;99.90
22192;DHT22;11261;52.456;10.850;2023-12-14T04:23:50;3.90;99.90
22192;DHT22;11261;52.456;10.850;2023-12-14T04:26:19;3.80;99.90
22192;DHT22;11261;52.456;10.850;2023-12-14T04:28:47;3.90;99.90
22192;DHT22;11261;52.456;10.850;2023-12-14T04:31:17;4.00;99.90
22192;DHT22;11261;52.456;10.850;2023-12-14T04:33:46;3.90;99.90
22192;DHT22;11261;52.456;10.850;2023-12-14T04:36:14;3.90;99.90
22192;DHT22;11261;52.456;10.850;2023-12-14T04:38:43;3.90;99.90
22192;DHT22;11261;52.456;10.850;2023-12-14T04:41:14;3.90;99.90
22192;DHT22;11261;52.456;10.850;2023-12-14T04:43:43;3.90;99.90
22192;DHT22;11261;52.456;10.850;2023-12-14T04:46:13;3.90;99.90
22192;DHT22;11261;52.456;10.850;2023-12-14T04:48:41;3.80;99.90
22192;DHT22;11261;52.456;10.850;2023-12-14T04:51:13;3.80;99.90
22192;DHT22;11261;52.456;10.850;2023-12-14T04:53:42;3.80;99.90
22192;DHT22;11261;52.456;10.850;2023-12-14T04:56:11;3.90;99.90
22192;DHT22;11261;52.456;10.850;2023-12-14T04:58:41;3.80;99.90
22192;DHT22;11261;52.456;10.850;2023-12-14T05:01:11;3.90;99.90
22192;DHT22;11261;52.456;10.850;2023-12-14T05:03:40;3.90;99.90
22192;DHT22;11261;52.456;10.850;2023-12-14T05:06:08;3.90;99.90
22192;DHT22;11261;52.456;10.850;2023-12-14T05:08:37;3.90;99.90
22192;DHT22;11261;52.456;10.850;2023-12-14T05:11:06;3.90;99.90
22192;DHT22;11261;52.456;10.850;2023-12-14T05:13:34;3.90;99.90
22192;DHT22;11261;52.456;10.850;2023-12-14T05:16:05;3.90;99.90
22192;DHT22;11261;52.456;10.850;2023-12-14T05:18:34;3.90;99.90
22192;DHT22;11261;52.456;10.850;2023-12-14T05:21:03;3.90;99.90
22192;DHT22;11261;52.456;10.850;2023-12-14T05:23:32;3.90;99.90
22192;DHT22;11261;52.456;10.850;2023-12-14T05:26:00;3.90;99.90
22192;DHT22;11261;52.456;10.850;2023-12-14T05:28:30;3.80;99.90
22192;DHT22;11261;52.456;10.850;2023-12-14T05:30:58;3.80;99.90
22192;DHT22;11261;52.456;10.850;2023-12-14T05:33:28;3.80;99.90
22192;DHT22;11261;52.456;10.850;2023-12-14T05:35:58;3.80;99.90
22192;DHT22;11261;52.456;10.850;2023-12-14T05:38:27;3.80;99.90
22192;DHT22;11261;52.456;10.850;2023-12-14T05:40:55;3.70;99.90
22192;DHT22;11261;52.456;10.850;2023-12-14T05:43:24;3.90;99.90
22192;DHT22;11261;52.456;10.850;2023-12-14T05:45:52;3.90;99.90
22192;DHT22;11261;52.456;10.850;2023-12-14T05:48:21;3.90;99.90
22192;DHT22;11261;52.456;10.850;2023-12-14T05:50:51;3.90;99.90
22192;DHT22;11261;52.456;10.850;2023-12-14T05:53:20;3.90;99.90
22192;DHT22;11261;52.456;10.850;2023-12-14T05:55:48;3.80;99.90
22192;DHT22;11261;52.456;10.850;2023-12-14T05:58:17;3.90;99.90
22192;DHT22;11261;52.456;10.850;2023-12-14T06:00:46;3.90;99.90
22192;DHT22;11261;52.456;10.850;2023-12-14T06:03:14;3.80;99.90
22192;DHT22;11261;52.456;10.850;2023-12-14T06:05:42;3.80;99.90
22192;DHT22;11261;52.456;10.850;2023-12-14T06:08:12;3.70;99.90
22192;DHT22;11261;52.456;10.850;2023-12-14T06:10:41;3.80;99.90
22192;DHT22;11261;52.456;10.850;2023-12-14T06:13:10;3.70;99.90
22192;DHT22;11261;52.456;10.850;2023-12-14T06:15:38;3.80;99.90
22192;DHT22;11261;52.456;10.850;2023-12-14T06:18:07;3.80;99.90
22192;DHT22;11261;52.456;10.850;2023-12-14T06:20:36;3.80;99.90
22192;DHT22;11261;52.456;10.850;2023-12-14T06:23:04;3.90;99.90
22192;DHT22;11261;52.456;10.850;2023-12-14T06:25:34;3.90;99.90
22192;DHT22;11261;52.456;10.850;2023-12-14T06:28:03;3.80;99.90
22192;DHT22;11261;52.456;10.850;2023-12-14T06:30:32;3.90;99.90
22192;DHT22;11261;52.456;10.850;2023-12-14T06:33:00;3.70;99.90
22192;DHT22;11261;52.456;10.850;2023-12-14T06:35:29;3.70;99.90
22192;DHT22;11261;52.456;10.850;2023-12-14T06:37:57;3.80;99.90
22192;DHT22;11261;52.456;10.850;2023-12-14T06:40:26;3.80;99.90
22192;DHT22;11261;52.456;10.850;2023-12-14T06:42:56;3.80;99.90
22192;DHT22;11261;52.456;10.850;2023-12-14T06:45:25;3.80;99.90
22192;DHT22;11261;52.456;10.850;2023-12-14T06:47:53;3.80;99.90
22192;DHT22;11261;52.456;10.850;2023-12-14T06:50:22;3.90;99.90
22192;DHT22;11261;52.456;10.850;2023-12-14T06:52:51;3.90;99.90
22192;DHT22;11261;52.456;10.850;2023-12-14T06:55:19;3.90;99.90
22192;DHT22;11261;52.456;10.850;2023-12-14T06:57:48;3.70;99.90
22192;DHT22;11261;52.456;10.850;2023-12-14T07:00:18;3.80;99.90
22192;DHT22;11261;52.456;10.850;2023-12-14T07:02:47;3.80;99.90
22192;DHT22;11261;52.456;10.850;2023-12-14T07:05:15;3.90;99.90
22192;DHT22;11261;52.456;10.850;2023-12-14T07:07:44;3.80;99.90
22192;DHT22;11261;52.456;10.850;2023-12-14T07:10:13;3.90;99.90
22192;DHT22;11261;52.456;10.850;2023-12-14T07:12:41;4.00;99.90
22192;DHT22;11261;52.456;10.850;2023-12-14T07:15:10;3.90;99.90
22192;DHT22;11261;52.456;10.850;2023-12-14T07:17:40;3.80;99.90
22192;DHT22;11261;52.456;10.850;2023-12-14T07:20:10;3.90;99.90
22192;DHT22;11261;52.456;10.850;2023-12-14T07:22:39;3.70;99.90
22192;DHT22;11261;52.456;10.850;2023-12-14T07:25:08;3.80;99.90
22192;DHT22;11261;52.456;10.850;2023-12-14T07:27:37;3.90;99.90
22192;DHT22;11261;52.456;10.850;2023-12-14T07:30:06;3.90;99.90
22192;DHT22;11261;52.456;10.850;2023-12-14T07:32:36;4.00;99.90
22192;DHT22;11261;52.456;10.850;2023-12-14T07:35:07;3.90;99.90
22192;DHT22;11261;52.456;10.850;2023-12-14T07:37:37;3.90;99.90
22192;DHT22;11261;52.456;10.850;2023-12-14T07:40:07;3.80;99.90
22192;DHT22;11261;52.456;10.850;2023-12-14T07:42:36;3.80;99.90
22192;DHT22;11261;52.456;10.850;2023-12-14T07:45:05;3.90;99.90
22192;DHT22;11261;52.456;10.850;2023-12-14T07:47:35;3.90;99.90
22192;DHT22;11261;52.456;10.850;2023-12-14T07:50:05;3.80;99.90
22192;DHT22;11261;52.456;10.850;2023-12-14T07:52:35;3.90;99.90
22192;DHT22;11261;52.456;10.850;2023-12-14T07:55:05;4.00;99.90
22192;DHT22;11261;52.456;10.850;2023-12-14T07:57:34;4.10;99.90
22192;DHT22;11261;52.456;10.850;2023-12-14T08:00:03;4.00;99.90
22192;DHT22;11261;52.456;10.850;2023-12-14T08:02:32;4.20;99.90
22192;DHT22;11261;52.456;10.850;2023-12-14T08:05:01;4.10;99.90
22192;DHT22;11261;52.456;10.850;2023-12-14T08:07:30;4.10;99.90
22192;DHT22;11261;52.456;10.850;2023-12-14T08:10:00;4.00;99.90
22192;DHT22;11261;52.456;10.850;2023-12-14T08:12:29;4.00;99.90
22192;DHT22;11261;52.456;10.850;2023-12-14T08:14:57;4.10;99.90
22192;DHT22;11261;52.456;10.850;2023-12-14T08:17:26;4.10;99.90
22192;DHT22;11261;52.456;10.850;2023-12-14T08:19:55;4.20;99.90
22192;DHT22;11261;52.456;10.850;2023-12-14T08:22:23;4.20;99.90
22192;DHT22;11261;52.456;10.850;2023-12-14T08:24:52;4.20;99.90
22192;DHT22;11261;52.456;10.850;2023-12-14T08:27:22;4.20;99.90
22192;DHT22;11261;52.456;10.850;2023-12-14T08:29:51;4.20;99.90
22192;DHT22;11261;52.456;10.850;2023-12-14T08:32:19;4.20;99.90
22192;DHT22;11261;52.456;10.850;2023-12-14T08:34:48;4.10;99.90
22192;DHT22;11261;52.456;10.850;2023-12-14T08:37:16;4.10;99.90
22192;DHT22;11261;52.456;10.850;2023-12-14T08:39:45;4.20;99.90
22192;DHT22;11261;52.456;10.850;2023-12-14T08:42:13;4.10;99.90
22192;DHT22;11261;52.456;10.850;2023-12-14T08:44:43;4.20;99.90
22192;DHT22;11261;52.456;10.850;2023-12-14T08:47:12;4.20;99.90
22192;DHT22;11261;52.456;10.850;2023-12-14T08:49:40;4.20;99.90
22192;DHT22;11261;52.456;10.850;2023-12-14T08:52:09;4.20;99.90
22192;DHT22;11261;52.456;10.850;2023-12-14T08:56:31;4.10;99.90
22192;DHT22;11261;52.456;10.850;2023-12-14T08:58:59;4.20;99.90
22192;DHT22;11261;52.456;10.850;2023-12-14T09:01:31;4.20;99.90
22192;DHT22;11261;52.456;10.850;2023-12-14T09:04:00;4.20;99.90
22192;DHT22;11261;52.456;10.850;2023-12-14T09:06:28;4.20;99.90
22192;DHT22;11261;52.456;10.850;2023-12-14T09:08:57;4.30;99.90
22192;DHT22;11261;52.456;10.850;2023-12-14T09:11:25;4.20;99.90
22192;DHT22;11261;52.456;10.850;2023-12-14T09:13:56;4.20;99.90
22192;DHT22;11261;52.456;10.850;2023-12-14T09:16:24;4.30;99.90
22192;DHT22;11261;52.456;10.850;2023-12-14T09:18:53;4.60;99.90
22192;DHT22;11261;52.456;10.850;2023-12-14T09:21:22;4.60;99.90
22192;DHT22;11261;52.456;10.850;2023-12-14T09:24:04;4.40;99.90
22192;DHT22;11261;52.456;10.850;2023-12-14T09:26:36;4.40;99.90
22192;DHT22;11261;52.456;10.850;2023-12-14T09:29:06;4.30;99.90
22192;DHT22;11261;52.456;10.850;2023-12-14T09:31:35;4.30;99.90
22192;DHT22;11261;52.456;10.850;2023-12-14T09:34:04;4.50;99.90
22192;DHT22;11261;52.456;10.850;2023-12-14T09:36:33;4.50;99.90
22192;DHT22;11261;52.456;10.850;2023-12-14T09:39:01;4.60;99.90
22192;DHT22;11261;52.456;10.850;2023-12-14T09:41:31;4.50;99.90
22192;DHT22;11261;52.456;10.850;2023-12-14T09:44:00;4.70;99.90
22192;DHT22;11261;52.456;10.850;2023-12-14T09:46:34;4.70;99.90
22192;DHT22;11261;52.456;10.850;2023-12-14T09:49:05;4.60;99.90
22192;DHT22;11261;52.456;10.850;2023-12-14T09:51:35;4.50;99.90
22192;DHT22;11261;52.456;10.850;2023-12-14T09:54:04;4.60;99.90
22192;DHT22;11261;52.456;10.850;2023-12-14T09:56:32;4.60;99.90
22192;DHT22;11261;52.456;10.850;2023-12-14T09:59:01;4.60;99.90
22192;DHT22;11261;52.456;10.850;2023-12-14T10:01:33;4.50;99.90
22192;DHT22;11261;52.456;10.850;2023-12-14T10:04:08;4.40;99.90
22192;DHT22;11261;52.456;10.850;2023-12-14T10:06:37;4.60;99.90
22192;DHT22;11261;52.456;10.850;2023-12-14T10:09:06;4.60;99.90
22192;DHT22;11261;52.456;10.850;2023-12-14T10:11:36;4.50;99.90
22192;DHT22;11261;52.456;10.850;2023-12-14T10:14:18;4.50;99.90
22192;DHT22;11261;52.456;10.850;2023-12-14T10:16:50;4.40;99.90
22192;DHT22;11261;52.456;10.850;2023-12-14T10:19:21;4.40;99.90
22192;DHT22;11261;52.456;10.850;2023-12-14T10:21:51;4.60;99.90
22192;DHT22;11261;52.456;10.850;2023-12-14T10:24:20;4.70;99.90
22192;DHT22;11261;52.456;10.850;2023-12-14T10:26:48;4.60;99.90
22192;DHT22;11261;52.456;10.850;2023-12-14T10:29:18;4.70;99.90
22192;DHT22;11261;52.456;10.850;2023-12-14T10:31:49;4.70;99.90
22192;DHT22;11261;52.456;10.850;2023-12-14T10:34:18;4.70;99.90
22192;DHT22;11261;52.456;10.850;2023-12-14T10:36:47;4.60;99.90
22192;DHT22;11261;52.456;10.850;2023-12-14T10:39:15;4.70;99.90
22192;DHT22;11261;52.456;10.850;2023-12-14T10:41:47;4.60;99.90
22192;DHT22;11261;52.456;10.850;2023-12-14T10:44:26;4.70;99.90
22192;DHT22;11261;52.456;10.850;2023-12-14T10:47:16;4.90;99.90
22192;DHT22;11261;52.456;10.850;2023-12-14T10:49:49;4.80;99.90
22192;DHT22;11261;52.456;10.850;2023-12-14T10:52:20;4.80;99.90
22192;DHT22;11261;52.456;10.850;2023-12-14T10:54:52;4.70;99.90
22192;DHT22;11261;52.456;10.850;2023-12-14T10:57:22;4.90;99.90
22192;DHT22;11261;52.456;10.850;2023-12-14T10:59:57;4.70;99.90
22192;DHT22;11261;52.456;10.850;2023-12-14T11:02:28;4.80;99.90
22192;DHT22;11261;52.456;10.850;2023-12-14T11:05:00;4.90;99.90
22192;DHT22;11261;52.456;10.850;2023-12-14T11:07:46;4.90;99.90
22192;DHT22;11261;52.456;10.850;2023-12-14T11:10:19;4.90;99.90
22192;DHT22;11261;52.456;10.850;2023-12-14T11:12:56;4.80;99.90
22192;DHT22;11261;52.456;10.850;2023-12-14T11:15:26;4.70;99.90
22192;DHT22;11261;52.456;10.850;2023-12-14T11:21:06;5.10;99.90
22192;DHT22;11261;52.456;10.850;2023-12-14T11:23:36;5.00;99.90
22192;DHT22;11261;52.456;10.850;2023-12-14T11:26:08;5.00;99.90
22192;DHT22;11261;52.456;10.850;2023-12-14T11:28:38;4.90;99.90
22192;DHT22;11261;52.456;10.850;2023-12-14T11:31:10;5.00;99.90
22192;DHT22;11261;52.456;10.850;2023-12-14T11:33:40;5.00;99.90
22192;DHT22;11261;52.456;10.850;2023-12-14T11:36:12;5.00;99.90
22192;DHT22;11261;52.456;10.850;2023-12-14T11:38:42;5.10;99.90
22192;DHT22;11261;52.456;10.850;2023-12-14T11:41:11;5.10;99.90
22192;DHT22;11261;52.456;10.850;2023-12-14T11:43:41;5.00;99.90
22192;DHT22;11261;52.456;10.850;2023-12-14T11:46:10;5.10;99.90
22192;DHT22;11261;52.456;10.850;2023-12-14T11:48:39;5.20;99.90
22192;DHT22;11261;52.456;10.850;2023-12-14T11:51:08;5.10;99.90
22192;DHT22;11261;52.456;10.850;2023-12-14T11:53:39;4.90;99.90
22192;DHT22;11261;52.456;10.850;2023-12-14T11:56:08;5.00;99.90
22192;DHT22;11261;52.456;10.850;2023-12-14T11:58:40;5.10;99.90
22192;DHT22;11261;52.456;10.850;2023-12-14T12:01:16;5.00;99.90
22192;DHT22;11261;52.456;10.850;2023-12-14T12:03:46;5.00;99.90
22192;DHT22;11261;52.456;10.850;2023-12-14T12:06:21;4.90;99.90
22192;DHT22;11261;52.456;10.850;2023-12-14T12:08:52;4.90;99.90
22192;DHT22;11261;52.456;10.850;2023-12-14T12:11:22;4.90;99.90
22192;DHT22;11261;52.456;10.850;2023-12-14T12:13:53;4.80;99.90
22192;DHT22;11261;52.456;10.850;2023-12-14T12:16:23;4.90;99.90
22192;DHT22;11261;52.456;10.850;2023-12-14T12:18:52;5.00;99.90
22192;DHT22;11261;52.456;10.850;2023-12-14T12:21:21;5.00;99.90
22192;DHT22;11261;52.456;10.850;2023-12-14T12:23:49;5.00;99.90
22192;DHT22;11261;52.456;10.850;2023-12-14T12:26:36;5.10;99.90
22192;DHT22;11261;52.456;10.850;2023-12-14T12:29:05;5.10;99.90
22192;DHT22;11261;52.456;10.850;2023-12-14T12:31:33;5.00;99.90
22192;DHT22;11261;52.456;10.850;2023-12-14T12:34:02;5.20;99.90
22192;DHT22;11261;52.456;10.850;2023-12-14T12:36:30;5.00;99.90
22192;DHT22;11261;52.456;10.850;2023-12-14T12:38:59;5.00;99.90
22192;DHT22;11261;52.456;10.850;2023-12-14T12:41:27;5.00;99.90
22192;DHT22;11261;52.456;10.850;2023-12-14T12:43:57;4.90;99.90
22192;DHT22;11261;52.456;10.850;2023-12-14T12:46:26;5.00;99.90
22192;DHT22;11261;52.456;10.850;2023-12-14T12:48:54;5.00;99.90
22192;DHT22;11261;52.456;10.850;2023-12-14T12:51:23;5.10;99.90
22192;DHT22;11261;52.456;10.850;2023-12-14T12:53:53;5.20;99.90
22192;DHT22;11261;52.456;10.850;2023-12-14T12:56:35;5.10;99.90
22192;DHT22;11261;52.456;10.850;2023-12-14T12:59:05;5.20;99.90
22192;DHT22;11261;52.456;10.850;2023-12-14T13:01:36;5.10;99.90
22192;DHT22;11261;52.456;10.850;2023-12-14T13:04:04;5.10;99.90
22192;DHT22;11261;52.456;10.850;2023-12-14T13:06:45;5.10;99.90
22192;DHT22;11261;52.456;10.850;2023-12-14T13:09:14;5.20;99.90
22192;DHT22;11261;52.456;10.850;2023-12-14T13:11:43;5.00;99.90
22192;DHT22;11261;52.456;10.850;2023-12-14T13:14:13;5.10;99.90
22192;DHT22;11261;52.456;10.850;2023-12-14T13:16:42;5.20;99.90
22192;DHT22;11261;52.456;10.850;2023-12-14T13:19:11;5.10;99.90
22192;DHT22;11261;52.456;10.850;2023-12-14T13:21:40;5.00;99.90
22192;DHT22;11261;52.456;10.850;2023-12-14T13:24:08;5.00;99.90
22192;DHT22;11261;52.456;10.850;2023-12-14T13:26:37;4.90;99.90
22192;DHT22;11261;52.456;10.850;2023-12-14T13:29:06;5.00;99.90
22192;DHT22;11261;52.456;10.850;2023-12-14T13:31:36;5.20;99.90
22192;DHT22;11261;52.456;10.850;2023-12-14T13:34:05;5.20;99.90
22192;DHT22;11261;52.456;10.850;2023-12-14T13:36:34;5.10;99.90
22192;DHT22;11261;52.456;10.850;2023-12-14T13:39:02;5.30;99.90
22192;DHT22;11261;52.456;10.850;2023-12-14T13:41:31;5.10;99.90
22192;DHT22;11261;52.456;10.850;2023-12-14T13:44:16;5.20;99.90
22192;DHT22;11261;52.456;10.850;2023-12-14T13:46:46;5.10;99.90
22192;DHT22;11261;52.456;10.850;2023-12-14T13:49:15;5.00;99.90
22192;DHT22;11261;52.456;10.850;2023-12-14T13:51:43;5.10;99.90
22192;DHT22;11261;52.456;10.850;2023-12-14T13:54:13;5.10;99.90
22192;DHT22;11261;52.456;10.850;2023-12-14T13:56:41;5.00;99.90
22192;DHT22;11261;52.456;10.850;2023-12-14T13:59:10;5.00;99.90
22192;DHT22;11261;52.456;10.850;2023-12-14T14:01:38;4.90;99.90
22192;DHT22;11261;52.456;10.850;2023-12-14T14:04:09;4.90;99.90
22192;DHT22;11261;52.456;10.850;2023-12-14T14:06:37;5.00;99.90
22192;DHT22;11261;52.456;10.850;2023-12-14T14:09:05;5.00;99.90
22192;DHT22;11261;52.456;10.850;2023-12-14T14:11:34;5.00;99.90
22192;DHT22;11261;52.456;10.850;2023-12-14T14:14:03;5.10;99.90
22192;DHT22;11261;52.456;10.850;2023-12-14T14:16:31;4.90;99.90
22192;DHT22;11261;52.456;10.850;2023-12-14T14:19:00;4.90;99.90
22192;DHT22;11261;52.456;10.850;2023-12-14T14:21:30;4.90;99.90
22192;DHT22;11261;52.456;10.850;2023-12-14T14:23:59;4.80;99.90
22192;DHT22;11261;52.456;10.850;2023-12-14T14:26:28;4.80;99.90
22192;DHT22;11261;52.456;10.850;2023-12-14T14:28:57;4.80;99.90
22192;DHT22;11261;52.456;10.850;2023-12-14T14:31:29;4.70;99.90
22192;DHT22;11261;52.456;10.850;2023-12-14T14:34:00;4.70;99.90
22192;DHT22;11261;52.456;10.850;2023-12-14T14:36:30;4.70;99.90
22192;DHT22;11261;52.456;10.850;2023-12-14T14:38:59;4.70;99.90
22192;DHT22;11261;52.456;10.850;2023-12-14T14:41:27;4.80;99.90
22192;DHT22;11261;52.456;10.850;2023-12-14T14:43:56;4.90;99.90
22192;DHT22;11261;52.456;10.850;2023-12-14T14:46:24;5.00;99.90
22192;DHT22;11261;52.456;10.850;2023-12-14T14:48:52;5.00;99.90
22192;DHT22;11261;52.456;10.850;2023-12-14T14:51:21;5.00;99.90
22192;DHT22;11261;52.456;10.850;2023-12-14T14:53:54;5.10;99.90
22192;DHT22;11261;52.456;10.850;2023-12-14T14:56:22;5.10;99.90
22192;DHT22;11261;52.456;10.850;2023-12-14T14:58:51;5.10;99.90
22192;DHT22;11261;52.456;10.850;2023-12-14T15:01:19;5.20;99.90
22192;DHT22;11261;52.456;10.850;2023-12-14T15:03:48;4.90;99.90
22192;DHT22;11261;52.456;10.850;2023-12-14T15:06:16;4.90;99.90
22192;DHT22;11261;52.456;10.850;2023-12-14T15:08:45;5.00;99.90
22192;DHT22;11261;52.456;10.850;2023-12-14T15:11:15;4.90;99.90
22192;DHT22;11261;52.456;10.850;2023-12-14T15:13:44;5.00;99.90
22192;DHT22;11261;52.456;10.850;2023-12-14T15:16:12;5.00;99.90
22192;DHT22;11261;52.456;10.850;2023-12-14T15:18:41;5.10;99.90
22192;DHT22;11261;52.456;10.850;2023-12-14T15:21:10;5.00;99.90
22192;DHT22;11261;52.456;10.850;2023-12-14T15:23:42;4.90;99.90
22192;DHT22;11261;52.456;10.850;2023-12-14T15:26:15;5.00;99.90
22192;DHT22;11261;52.456;10.850;2023-12-14T15:28:43;4.80;99.90
22192;DHT22;11261;52.456;10.850;2023-12-14T15:31:12;4.80;99.90
22192;DHT22;11261;52.456;10.850;2023-12-14T15:33:41;4.90;99.90
22192;DHT22;11261;52.456;10.850;2023-12-14T15:36:09;4.90;99.90
22192;DHT22;11261;52.456;10.850;2023-12-14T15:38:38;5.00;99.90
22192;DHT22;11261;52.456;10.850;2023-12-14T15:41:08;5.00;99.90
22192;DHT22;11261;52.456;10.850;2023-12-14T15:43:37;4.70;99.90
22192;DHT22;11261;52.456;10.850;2023-12-14T15:46:06;4.80;99.90
22192;DHT22;11261;52.456;10.850;2023-12-14T15:48:35;4.80;99.90